CET,Max TemperatureF,Mean TemperatureF,Min TemperatureF,Max Dew PointF,MeanDew PointF,Min DewpointF,Max Humidity, Mean Humidity, Min Humidity, Max Sea Level PressureIn, Mean Sea Level PressureIn, Min Sea Level PressureIn, Max VisibilityMiles, Mean VisibilityMiles, Min VisibilityMiles, Max Wind SpeedMPH, Mean Wind SpeedMPH, Max Gust SpeedMPH,PrecipitationIn, CloudCover, Events, WindDirDegrees
2012-11-1,68,62,57,64,57,54,88,75,64,29.74,29.57,29.42,6,6,4,18,12,32,0.00,4,Rain,236
2012-11-2,69,62,55,59,56,54,94,80,60,30.01,29.87,29.74,6,6,6,14,4,,0.00,2,Rain,247
2012-11-3,71,63,55,61,55,52,100,77,50,30.06,30.04,30.01,6,6,6,8,2,,0.00,2,,167
2012-11-4,69,64,59,64,60,54,88,81,73,30.04,29.96,29.86,6,6,2,15,6,25,0.00,5,Rain,183
2012-11-5,73,68,62,68,63,54,88,81,72,29.95,29.82,29.77,6,6,2,15,11,,0.00,6,Rain,216
2012-11-6,68,64,59,57,54,50,88,71,59,30.09,30.01,29.95,6,6,6,13,6,,0.00,3,,233
2012-11-7,66,58,51,57,49,39,94,72,55,30.30,30.18,30.09,6,6,5,24,5,36,0.00,4,Rain,38
2012-11-8,66,58,50,48,44,39,87,63,45,30.30,30.25,30.18,5,5,5,8,5,,0.00,,,340
2012-11-9,66,56,46,54,49,45,100,80,56,30.18,30.12,30.09,6,6,5,6,2,,0.00,1,,309
2012-11-10,68,58,48,55,51,46,94,78,56,30.09,30.06,30.04,6,5,4,6,3,,0.00,4,,343
2012-11-11,75,63,51,61,55,48,88,71,57,30.06,30.00,29.95,6,6,4,13,4,24,0.00,1,,227
2012-11-12,75,68,60,64,60,55,88,78,61,30.18,30.11,30.06,6,6,5,12,4,,0.00,1,,317
2012-11-13,77,68,59,61,57,54,88,71,50,30.21,30.18,30.15,5,5,5,8,5,,0.00,,,11
2012-11-14,71,66,60,55,52,48,77,65,50,30.18,30.13,30.09,6,6,6,13,7,,0.00,1,,39
2012-11-15,66,60,55,50,48,46,72,62,52,30.09,30.04,30.01,6,6,6,13,8,,0.00,3,,31
2012-11-16,64,60,55,54,49,46,88,73,56,30.04,30.02,30.01,6,6,6,14,8,,0.00,4,Rain,28
2012-11-17,66,60,55,55,54,50,88,78,64,30.04,29.98,29.95,6,6,5,9,6,,0.00,5,Rain,5
2012-11-18,69,64,59,61,59,55,100,87,60,29.95,29.89,29.86,6,6,2,8,4,,0.00,6,Rain,22
2012-11-19,64,62,59,59,58,55,100,92,82,29.89,29.83,29.80,6,5,2,9,4,,0.00,6,Rain,2
2012-11-20,62,60,57,57,55,52,94,84,72,29.95,29.86,29.80,6,6,6,9,6,,0.00,6,Rain,10
2012-11-21,68,62,57,55,54,52,88,77,60,30.09,30.00,29.92,6,6,6,12,6,,0.00,5,,18
2012-11-22,69,61,53,59,54,50,94,83,60,30.18,30.15,30.09,6,5,3,7,3,,0.00,3,,316
2012-11-23,66,58,51,59,55,50,100,88,68,30.24,30.19,30.15,6,4,3,6,2,,0.00,3,,336
2012-11-24,66,58,50,55,53,48,100,86,64,30.24,30.22,30.21,6,4,2,7,3,,0.00,1,,339
2012-11-25,66,58,50,57,53,48,100,89,68,30.24,30.20,30.15,6,4,1,5,2,,0.00,3,Fog,350
2012-11-26,66,56,46,54,50,46,100,84,56,30.18,30.12,30.04,6,4,2,6,3,,0.00,2,,1
2012-11-27,66,57,48,55,51,46,94,74,56,30.04,29.90,29.74,6,6,4,7,3,,0.00,2,,199
2012-11-28,71,61,51,63,54,43,100,70,52,29.74,29.50,29.36,6,6,2,23,10,40,0.00,4,Rain-Thunderstorm,184
2012-11-29,62,58,53,52,48,45,94,71,59,29.47,29.42,29.39,6,6,2,23,16,38,0.00,6,Rain-Thunderstorm,217
2012-11-30,55,50,41,55,47,39,100,87,63,29.74,29.58,29.44,6,6,3,21,9,,0.00,5,Rain-Thunderstorm,245